createdAt,value
2019-05-19T00:00:52.173Z,1003.52
2019-05-19T00:01:52.626Z,1003.53
2019-05-19T00:02:53.055Z,1003.54
2019-05-19T00:03:53.478Z,1003.57
2019-05-19T00:04:53.910Z,1003.58
2019-05-19T00:05:54.356Z,1003.59
2019-05-19T00:06:54.786Z,1003.60
2019-05-19T00:07:55.209Z,1003.63
2019-05-19T00:08:55.684Z,1003.66
2019-05-19T00:09:56.092Z,1003.66
2019-05-19T00:10:56.535Z,1003.67
2019-05-19T00:11:56.959Z,1003.67
2019-05-19T00:12:57.386Z,1003.67
2019-05-19T00:13:57.805Z,1003.67
2019-05-19T00:14:58.298Z,1003.66
2019-05-19T00:15:58.687Z,1003.73
2019-05-19T00:16:59.123Z,1003.69
2019-05-19T00:17:59.558Z,1003.70
2019-05-19T00:18:59.975Z,1003.71
2019-05-19T00:20:00.417Z,1003.70
2019-05-19T00:21:00.871Z,1003.69
2019-05-19T00:22:01.272Z,1003.71
2019-05-19T00:23:01.718Z,1003.70
2019-05-19T00:24:02.146Z,1003.69
2019-05-19T00:25:02.607Z,1003.68
2019-05-19T00:26:03.033Z,1003.69
2019-05-19T00:27:03.451Z,1003.68
2019-05-19T00:28:03.873Z,1003.67
2019-05-19T00:29:04.315Z,1003.65
2019-05-19T00:30:04.846Z,1003.70
2019-05-19T00:31:05.219Z,1003.69
2019-05-19T00:32:05.642Z,1003.71
2019-05-19T00:33:06.078Z,1003.67
2019-05-19T00:34:06.487Z,1003.67
2019-05-19T00:35:06.944Z,1003.65
2019-05-19T00:36:07.362Z,1003.66
2019-05-19T00:37:07.792Z,1003.64
2019-05-19T00:38:08.226Z,1003.66
2019-05-19T00:39:08.650Z,1003.64
2019-05-19T00:40:09.090Z,1003.63
2019-05-19T00:41:09.543Z,1003.63
2019-05-19T00:42:10.008Z,1003.66
2019-05-19T00:43:10.463Z,1003.69
2019-05-19T00:44:10.817Z,1003.68
2019-05-19T00:45:11.299Z,1003.70
2019-05-19T00:46:11.689Z,1003.67
2019-05-19T00:47:12.115Z,1003.73
2019-05-19T00:48:13.209Z,1003.70
2019-05-19T00:49:12.982Z,1003.66
2019-05-19T00:50:13.433Z,1003.66
2019-05-19T00:51:13.849Z,1003.66
2019-05-19T00:52:14.294Z,1003.65
2019-05-19T00:53:14.727Z,1003.63
2019-05-19T00:54:15.145Z,1003.64
2019-05-19T00:55:15.604Z,1003.61
2019-05-19T00:56:16.060Z,1003.63
2019-05-19T00:57:16.476Z,1003.62
2019-05-19T00:58:17.577Z,1003.62
2019-05-19T00:59:17.312Z,1003.65
2019-05-19T01:00:17.763Z,1003.65
2019-05-19T01:01:18.179Z,1003.60
2019-05-19T01:02:18.622Z,1003.61
2019-05-19T01:03:19.111Z,1003.59
2019-05-19T01:04:19.482Z,1003.60
2019-05-19T01:05:20.860Z,1003.59
2019-05-19T01:06:20.376Z,1003.58
2019-05-19T01:07:20.823Z,1003.58
2019-05-19T01:08:21.228Z,1003.58
2019-05-19T01:09:21.654Z,1003.61
2019-05-19T01:10:22.193Z,1003.58
2019-05-19T01:11:22.574Z,1003.60
2019-05-19T01:12:22.954Z,1003.63
2019-05-19T01:13:23.380Z,1003.56
2019-05-19T01:14:23.833Z,1003.56
2019-05-19T01:15:24.268Z,1003.54
2019-05-19T01:16:24.688Z,1003.57
2019-05-19T01:17:25.125Z,1003.55
2019-05-19T01:18:25.568Z,1003.54
2019-05-19T01:19:25.982Z,1003.53
2019-05-19T01:20:26.419Z,1003.52
2019-05-19T01:21:26.856Z,1003.52
2019-05-19T01:22:27.431Z,1003.54
2019-05-19T01:23:27.735Z,1003.60
2019-05-19T01:24:28.190Z,1003.60
2019-05-19T01:27:04.698Z,1003.63
2019-05-19T01:28:05.142Z,1003.63
2019-05-19T01:29:05.566Z,1003.61
2019-05-19T01:30:05.996Z,1003.61
2019-05-19T01:31:06.428Z,1003.58
2019-05-19T01:32:06.854Z,1003.58
2019-05-19T01:33:07.311Z,1003.59
2019-05-19T01:34:07.736Z,1003.57
2019-05-19T01:35:08.162Z,1003.56
2019-05-19T01:36:08.605Z,1003.52
2019-05-19T01:37:10.958Z,1003.51
2019-05-19T01:38:09.456Z,1003.53
2019-05-19T01:39:09.888Z,1003.52
2019-05-19T01:40:10.335Z,1003.54
2019-05-19T01:41:10.757Z,1003.54
2019-05-19T01:42:11.185Z,1003.54
2019-05-19T01:43:15.436Z,1003.54
2019-05-19T01:44:12.063Z,1003.55
2019-05-19T01:45:12.511Z,1003.54
2019-05-19T01:46:12.951Z,1003.54
2019-05-19T01:47:13.367Z,1003.57
2019-05-19T01:48:13.786Z,1003.54
2019-05-19T01:49:15.956Z,1003.54
2019-05-19T01:50:18.133Z,1003.54
2019-05-19T01:51:15.088Z,1003.52
2019-05-19T01:52:15.523Z,1003.52
2019-05-19T01:53:15.955Z,1003.47
2019-05-19T01:54:16.865Z,1003.45
2019-05-19T01:55:16.819Z,1003.44
2019-05-19T01:56:17.253Z,1003.45
2019-05-19T01:57:17.682Z,1003.46
2019-05-19T01:58:18.139Z,1003.48
2019-05-19T01:59:18.614Z,1003.45
2019-05-19T02:00:19.021Z,1003.45
2019-05-19T02:01:19.426Z,1003.47
2019-05-19T02:02:21.446Z,1003.48
2019-05-19T02:03:20.288Z,1003.47
2019-05-19T02:04:20.731Z,1003.46
2019-05-19T02:05:21.162Z,1003.44
2019-05-19T02:06:21.603Z,1003.43
2019-05-19T02:07:22.034Z,1003.45
2019-05-19T02:08:22.449Z,1003.41
2019-05-19T02:09:22.937Z,1003.44
2019-05-19T02:10:23.319Z,1003.45
2019-05-19T02:11:23.764Z,1003.39
2019-05-19T02:12:24.180Z,1003.39
2019-05-19T02:13:24.622Z,1003.40
2019-05-19T02:14:25.051Z,1003.40
2019-05-19T02:15:25.484Z,1003.34
2019-05-19T02:16:25.924Z,1003.32
2019-05-19T02:17:26.351Z,1003.33
2019-05-19T02:18:26.795Z,1003.34
2019-05-19T02:19:27.231Z,1003.34
2019-05-19T02:20:33.392Z,1003.38
2019-05-19T02:21:28.077Z,1003.36
2019-05-19T02:22:28.512Z,1003.33
2019-05-19T02:23:28.946Z,1003.34
2019-05-19T02:24:29.374Z,1003.33
2019-05-19T02:25:29.808Z,1003.34
2019-05-19T02:26:30.253Z,1003.33
2019-05-19T02:27:30.676Z,1003.31
2019-05-19T02:28:31.112Z,1003.37
2019-05-19T02:29:31.542Z,1003.32
2019-05-19T02:30:32.094Z,1003.35
2019-05-19T02:31:32.404Z,1003.34
2019-05-19T02:32:32.857Z,1003.37
2019-05-19T02:33:35.922Z,1003.37
2019-05-19T02:34:35.462Z,1003.36
2019-05-19T02:35:34.160Z,1003.36
2019-05-19T02:36:34.574Z,1003.39
2019-05-19T02:37:35.014Z,1003.36
2019-05-19T02:38:35.451Z,1003.41
2019-05-19T02:39:35.869Z,1003.40
2019-05-19T02:40:39.088Z,1003.36
2019-05-19T02:41:36.731Z,1003.36
2019-05-19T02:42:37.166Z,1003.33
2019-05-19T02:43:37.599Z,1003.33
2019-05-19T02:44:38.042Z,1003.33
2019-05-19T02:45:38.467Z,1003.38
2019-05-19T02:46:38.906Z,1003.32
2019-05-19T02:47:39.330Z,1003.36
2019-05-19T02:48:39.767Z,1003.36
2019-05-19T02:49:40.201Z,1003.33
2019-05-19T02:50:51.745Z,1003.31
2019-05-19T02:51:41.061Z,1003.31
2019-05-19T02:52:41.498Z,1003.32
2019-05-19T02:53:41.929Z,1003.34
2019-05-19T02:54:42.357Z,1003.31
2019-05-19T02:55:42.793Z,1003.34
2019-05-19T02:56:43.267Z,1003.33
2019-05-19T02:57:43.661Z,1003.34
2019-05-19T02:58:44.093Z,1003.34
2019-05-19T02:59:44.571Z,1003.32
2019-05-19T03:00:44.977Z,1003.30
2019-05-19T03:01:45.394Z,1003.34
2019-05-19T03:02:45.842Z,1003.29
2019-05-19T03:03:46.263Z,1003.26
2019-05-19T03:04:46.702Z,1003.25
2019-05-19T03:05:47.153Z,1003.28
2019-05-19T03:06:48.483Z,1003.30
2019-05-19T03:07:47.989Z,1003.27
2019-05-19T03:08:48.431Z,1003.30
2019-05-19T03:09:48.853Z,1003.28
2019-05-19T03:10:49.299Z,1003.33
2019-05-19T03:11:49.734Z,1003.28
2019-05-19T03:12:50.158Z,1003.29
2019-05-19T03:13:54.486Z,1003.31
2019-05-19T03:14:51.017Z,1003.29
2019-05-19T03:15:51.454Z,1003.31
2019-05-19T03:16:51.883Z,1003.29
2019-05-19T03:17:52.318Z,1003.34
2019-05-19T03:18:52.744Z,1003.28
2019-05-19T03:19:53.229Z,1003.34
2019-05-19T03:21:09.780Z,1003.32
2019-05-19T03:23:27.672Z,1003.36
2019-05-19T03:24:28.079Z,1003.36
2019-05-19T03:26:22.662Z,1003.35
2019-05-19T03:28:57.173Z,1003.40
2019-05-19T03:29:57.598Z,1003.41
2019-05-19T03:31:52.173Z,1003.42
2019-05-19T03:32:52.586Z,1003.45
2019-05-19T03:34:47.207Z,1003.43
2019-05-19T03:35:47.589Z,1003.42
2019-05-19T03:37:42.145Z,1003.42
2019-05-19T03:38:42.569Z,1003.45
2019-05-19T03:40:37.138Z,1003.48
2019-05-19T03:41:37.570Z,1003.47
2019-05-19T03:43:33.129Z,1003.47
2019-05-19T03:44:33.546Z,1003.47
2019-05-19T03:46:28.137Z,1003.48
2019-05-19T03:47:28.562Z,1003.49
2019-05-19T03:49:23.142Z,1003.51
2019-05-19T03:50:23.567Z,1003.44
2019-05-19T03:52:18.143Z,1003.48
2019-05-19T03:53:18.564Z,1003.47
2019-05-19T03:55:13.138Z,1003.44
2019-05-19T03:56:13.569Z,1003.44
2019-05-19T03:58:08.140Z,1003.46
2019-05-19T03:59:08.567Z,1003.48
2019-05-19T04:01:03.126Z,1003.48
2019-05-19T04:02:03.574Z,1003.49
2019-05-19T04:03:58.134Z,1003.46
2019-05-19T04:04:58.557Z,1003.49
2019-05-19T04:06:54.098Z,1003.47
2019-05-19T04:07:54.537Z,1003.51
2019-05-19T04:09:50.083Z,1003.54
2019-05-19T04:10:50.510Z,1003.52
2019-05-19T04:11:50.947Z,1003.56
2019-05-19T04:12:51.386Z,1003.55
2019-05-19T04:13:51.813Z,1003.56
2019-05-19T04:14:52.244Z,1003.55
2019-05-19T04:15:52.683Z,1003.55
2019-05-19T04:16:53.111Z,1003.55
2019-05-19T04:17:53.547Z,1003.54
2019-05-19T04:18:53.985Z,1003.57
2019-05-19T04:19:54.413Z,1003.61
2019-05-19T04:20:54.851Z,1003.57
2019-05-19T04:21:55.283Z,1003.63
2019-05-19T04:22:55.726Z,1003.58
2019-05-19T04:23:56.153Z,1003.58
2019-05-19T04:24:56.579Z,1003.57
2019-05-19T04:25:57.024Z,1003.57
2019-05-19T04:26:57.453Z,1003.59
2019-05-19T04:27:57.885Z,1003.61
2019-05-19T04:28:58.323Z,1003.58
2019-05-19T04:29:58.756Z,1003.56
2019-05-19T04:30:59.189Z,1003.59
2019-05-19T04:31:59.623Z,1003.58
2019-05-19T04:33:00.049Z,1003.61
2019-05-19T04:34:00.502Z,1003.64
2019-05-19T04:35:00.925Z,1003.62
2019-05-19T04:36:01.358Z,1003.59
2019-05-19T04:37:01.792Z,1003.58
2019-05-19T04:38:02.228Z,1003.59
2019-05-19T04:39:02.679Z,1003.58
2019-05-19T04:40:03.101Z,1003.60
2019-05-19T04:41:03.528Z,1003.64
2019-05-19T04:42:03.966Z,1003.61
2019-05-19T04:43:04.398Z,1003.59
2019-05-19T04:44:04.836Z,1003.62
2019-05-19T04:45:05.270Z,1003.58
2019-05-19T04:46:05.708Z,1003.64
2019-05-19T04:47:06.135Z,1003.58
2019-05-19T04:48:09.404Z,1003.59
2019-05-19T04:49:07.012Z,1003.55
2019-05-19T04:50:07.444Z,1003.55
2019-05-19T04:51:07.882Z,1003.53
2019-05-19T04:52:08.316Z,1003.53
2019-05-19T04:53:08.759Z,1003.54
2019-05-19T04:54:09.187Z,1003.52
2019-05-19T04:55:09.618Z,1003.47
2019-05-19T04:56:10.051Z,1003.49
2019-05-19T04:57:10.492Z,1003.50
2019-05-19T04:58:10.922Z,1003.50
2019-05-19T04:59:11.356Z,1003.49
2019-05-19T05:00:11.797Z,1003.47
2019-05-19T05:01:12.227Z,1003.46
2019-05-19T05:02:12.666Z,1003.47
2019-05-19T05:03:13.104Z,1003.49
2019-05-19T05:04:13.537Z,1003.44
2019-05-19T05:05:13.981Z,1003.48
2019-05-19T05:06:14.410Z,1003.46
2019-05-19T05:07:14.852Z,1003.50
2019-05-19T05:08:28.716Z,1003.49
2019-05-19T05:09:15.715Z,1003.50
2019-05-19T05:10:16.148Z,1003.52
2019-05-19T05:11:16.588Z,1003.52
2019-05-19T05:12:17.019Z,1003.50
2019-05-19T05:13:17.452Z,1003.50
2019-05-19T05:14:17.950Z,1003.50
2019-05-19T05:15:18.330Z,1003.47
2019-05-19T05:16:18.812Z,1003.48
2019-05-19T05:17:19.203Z,1003.47
2019-05-19T05:18:19.648Z,1003.50
2019-05-19T05:19:20.073Z,1003.49
2019-05-19T05:20:20.506Z,1003.52
2019-05-19T05:21:20.957Z,1003.53
2019-05-19T05:22:22.514Z,1003.54
2019-05-19T05:23:21.819Z,1003.53
2019-05-19T05:24:22.253Z,1003.53
2019-05-19T05:25:22.694Z,1003.52
2019-05-19T05:26:23.125Z,1003.49
2019-05-19T05:27:23.572Z,1003.51
2019-05-19T05:28:24.003Z,1003.47
2019-05-19T05:29:24.442Z,1003.50
2019-05-19T05:30:24.878Z,1003.57
2019-05-19T05:31:25.309Z,1003.49
2019-05-19T05:32:25.749Z,1003.52
2019-05-19T05:33:26.184Z,1003.50
2019-05-19T05:34:26.627Z,1003.48
2019-05-19T05:35:27.059Z,1003.50
2019-05-19T05:36:27.919Z,1003.50
2019-05-19T05:37:27.931Z,1003.49
2019-05-19T05:38:28.407Z,1003.55
2019-05-19T05:39:28.809Z,1003.55
2019-05-19T05:40:29.242Z,1003.53
2019-05-19T05:41:29.686Z,1003.52
2019-05-19T05:42:31.872Z,1003.55
2019-05-19T05:43:30.555Z,1003.52
2019-05-19T05:44:30.991Z,1003.52
2019-05-19T05:45:31.455Z,1003.51
2019-05-19T05:46:31.880Z,1003.54
2019-05-19T05:47:32.301Z,1003.50
2019-05-19T05:48:32.754Z,1003.49
2019-05-19T05:49:33.189Z,1003.51
2019-05-19T05:50:33.620Z,1003.53
2019-05-19T05:51:34.058Z,1003.52
2019-05-19T05:52:38.700Z,1003.53
2019-05-19T05:53:34.927Z,1003.56
2019-05-19T05:54:35.370Z,1003.55
2019-05-19T05:55:35.807Z,1003.59
2019-05-19T05:56:36.249Z,1003.57
2019-05-19T05:57:36.685Z,1003.54
2019-05-19T05:58:37.127Z,1003.55
2019-05-19T05:59:37.559Z,1003.53
2019-05-19T06:00:38.002Z,1003.54
2019-05-19T06:01:38.442Z,1003.52
2019-05-19T06:02:38.874Z,1003.51
2019-05-19T06:03:39.308Z,1003.52
2019-05-19T06:04:39.752Z,1003.50
2019-05-19T06:05:40.199Z,1003.51
2019-05-19T06:06:40.675Z,1003.51
2019-05-19T06:07:41.073Z,1003.49
2019-05-19T06:08:41.508Z,1003.48
2019-05-19T06:09:41.947Z,1003.48
2019-05-19T06:10:42.388Z,1003.50
2019-05-19T06:11:42.822Z,1003.49
2019-05-19T06:12:43.261Z,1003.49
2019-05-19T06:13:43.705Z,1003.50
2019-05-19T06:14:44.151Z,1003.55
2019-05-19T06:15:44.581Z,1003.54
2019-05-19T06:16:45.035Z,1003.57
2019-05-19T06:17:45.457Z,1003.62
2019-05-19T06:18:45.899Z,1003.61
2019-05-19T06:19:46.336Z,1003.61
2019-05-19T06:20:46.783Z,1003.59
2019-05-19T06:21:47.209Z,1003.57
2019-05-19T06:22:56.409Z,1003.55
2019-05-19T06:23:48.103Z,1003.55
2019-05-19T06:24:48.536Z,1003.52
2019-05-19T06:25:49.015Z,1003.53
2019-05-19T06:26:49.418Z,1003.51
2019-05-19T06:27:49.861Z,1003.53
2019-05-19T06:28:50.301Z,1003.51
2019-05-19T06:29:50.743Z,1003.48
2019-05-19T06:30:51.216Z,1003.52
2019-05-19T06:31:51.633Z,1003.50
2019-05-19T06:32:52.082Z,1003.47
2019-05-19T06:33:52.518Z,1003.47
2019-05-19T06:34:52.971Z,1003.46
2019-05-19T06:35:53.420Z,1003.45
2019-05-19T06:36:55.170Z,1003.47
2019-05-19T06:37:54.308Z,1003.45
2019-05-19T06:38:54.788Z,1003.48
2019-05-19T06:39:55.206Z,1003.48
2019-05-19T06:40:55.657Z,1003.41
2019-05-19T06:41:56.112Z,1003.45
2019-05-19T06:42:56.554Z,1003.44
2019-05-19T06:43:57.000Z,1003.45
2019-05-19T06:44:57.455Z,1003.42
2019-05-19T06:45:57.901Z,1003.46
2019-05-19T06:46:58.357Z,1003.44
2019-05-19T06:47:58.808Z,1003.47
2019-05-19T06:48:59.267Z,1003.47
2019-05-19T06:49:59.715Z,1003.48
2019-05-19T06:51:00.169Z,1003.46
2019-05-19T06:52:00.617Z,1003.42
2019-05-19T06:53:13.663Z,1003.40
2019-05-19T06:54:01.520Z,1003.38
2019-05-19T06:55:01.984Z,1003.37
2019-05-19T06:56:02.443Z,1003.37
2019-05-19T06:57:02.892Z,1003.39
2019-05-19T06:58:03.342Z,1003.41
2019-05-19T06:59:03.799Z,1003.39
2019-05-19T07:00:04.267Z,1003.39
2019-05-19T07:01:04.719Z,1003.39
2019-05-19T07:02:05.166Z,1003.41
2019-05-19T07:03:05.620Z,1003.42
2019-05-19T07:04:06.084Z,1003.39
2019-05-19T07:05:06.532Z,1003.35
2019-05-19T07:06:06.990Z,1003.36
2019-05-19T07:07:07.483Z,1003.37
2019-05-19T07:08:07.906Z,1003.37
2019-05-19T07:09:08.362Z,1003.36
2019-05-19T07:10:08.815Z,1003.35
2019-05-19T07:11:09.276Z,1003.33
2019-05-19T07:12:09.738Z,1003.32
2019-05-19T07:13:10.195Z,1003.32
2019-05-19T07:14:10.653Z,1003.33
2019-05-19T07:15:11.101Z,1003.29
2019-05-19T07:16:11.559Z,1003.31
2019-05-19T07:17:12.017Z,1003.28
2019-05-19T07:18:12.498Z,1003.32
2019-05-19T07:19:12.958Z,1003.26
2019-05-19T07:20:13.396Z,1003.27
2019-05-19T07:21:13.849Z,1003.23
2019-05-19T07:22:14.303Z,1003.25
2019-05-19T07:23:27.197Z,1003.26
2019-05-19T07:24:15.224Z,1003.25
2019-05-19T07:25:15.684Z,1003.29
2019-05-19T07:26:16.144Z,1003.26
2019-05-19T07:27:16.600Z,1003.27
2019-05-19T07:28:17.065Z,1003.29
2019-05-19T07:29:17.514Z,1003.30
2019-05-19T07:30:17.968Z,1003.31
2019-05-19T07:31:18.430Z,1003.27
2019-05-19T07:32:18.887Z,1003.32
2019-05-19T07:33:19.348Z,1003.28
2019-05-19T07:34:19.810Z,1003.30
2019-05-19T07:35:20.264Z,1003.28
2019-05-19T07:36:20.725Z,1003.29
2019-05-19T07:37:21.187Z,1003.29
2019-05-19T07:38:21.648Z,1003.28
2019-05-19T07:39:22.106Z,1003.22
2019-05-19T07:40:22.578Z,1003.27
2019-05-19T07:41:23.026Z,1003.25
2019-05-19T07:42:23.488Z,1003.24
2019-05-19T07:43:24.049Z,1003.23
2019-05-19T07:44:24.409Z,1003.22
2019-05-19T07:45:24.869Z,1003.25
2019-05-19T07:46:25.550Z,1003.28
2019-05-19T07:47:25.976Z,1003.21
2019-05-19T07:48:38.396Z,1003.19
2019-05-19T07:50:41.659Z,1003.17
2019-05-19T07:51:41.985Z,1003.18
2019-05-19T07:53:42.841Z,1003.18
2019-05-19T07:54:37.051Z,1003.17
2019-05-19T07:56:31.683Z,1003.18
2019-05-19T07:57:32.144Z,1003.14
2019-05-19T07:59:27.749Z,1003.14
2019-05-19T08:00:28.210Z,1003.15
2019-05-19T08:02:22.874Z,1003.13
2019-05-19T08:03:23.298Z,1003.09
2019-05-19T08:05:17.925Z,1003.11
2019-05-19T08:06:18.385Z,1003.10
2019-05-19T08:08:14.000Z,1003.07
2019-05-19T08:09:14.456Z,1003.07
2019-05-19T08:11:09.114Z,1003.04
2019-05-19T08:12:09.558Z,1003.08
2019-05-19T08:14:04.195Z,1003.03
2019-05-19T08:15:04.658Z,1003.04
2019-05-19T08:16:59.296Z,1002.98
2019-05-19T08:17:59.752Z,1002.97
2019-05-19T08:19:54.384Z,1003.03
2019-05-19T08:20:54.850Z,1003.02
2019-05-19T08:22:51.425Z,1003.06
2019-05-19T08:23:59.893Z,1003.04
2019-05-19T08:25:44.577Z,1002.99
2019-05-19T08:26:45.032Z,1002.97
2019-05-19T08:28:39.674Z,1003.05
2019-05-19T08:29:40.120Z,1003.05
2019-05-19T08:31:34.756Z,1003.03
2019-05-19T08:32:35.216Z,1003.05
2019-05-19T08:34:29.846Z,1003.04
2019-05-19T08:35:30.301Z,1003.03
2019-05-19T08:37:28.904Z,1003.11
2019-05-19T08:38:29.360Z,1003.09
2019-05-19T08:39:29.829Z,1003.03
2019-05-19T08:40:30.297Z,1003.07
2019-05-19T08:41:30.755Z,1002.98
2019-05-19T08:42:31.210Z,1002.97
2019-05-19T08:43:31.676Z,1002.91
2019-05-19T08:44:32.147Z,1003.02
2019-05-19T08:45:32.602Z,1003.04
2019-05-19T08:46:33.069Z,1003.07
2019-05-19T08:47:33.535Z,1003.08
2019-05-19T08:48:33.993Z,1003.08
2019-05-19T08:49:34.478Z,1003.06
2019-05-19T08:50:34.925Z,1003.03
2019-05-19T08:51:35.386Z,1003.01
2019-05-19T08:52:35.850Z,1002.99
2019-05-19T08:53:36.319Z,1003.05
2019-05-19T08:54:36.780Z,1002.99
2019-05-19T08:55:37.254Z,1003.00
2019-05-19T08:56:37.711Z,1003.06
2019-05-19T08:57:38.181Z,1003.02
2019-05-19T08:58:38.639Z,1003.04
2019-05-19T08:59:39.121Z,1003.00
2019-05-19T09:00:39.577Z,1002.96
2019-05-19T09:01:40.046Z,1003.07
2019-05-19T09:02:40.526Z,1003.05
2019-05-19T09:03:40.978Z,1003.05
2019-05-19T09:04:41.443Z,1003.00
2019-05-19T09:05:41.911Z,1003.03
2019-05-19T09:06:42.375Z,1003.02
2019-05-19T09:07:42.852Z,1002.99
2019-05-19T09:08:43.307Z,1002.94
2019-05-19T09:09:43.777Z,1002.96
2019-05-19T09:10:44.241Z,1002.92
2019-05-19T09:11:47.767Z,1002.94
2019-05-19T09:12:45.174Z,1002.98
2019-05-19T09:13:45.647Z,1002.90
2019-05-19T09:14:46.108Z,1002.95
2019-05-19T09:15:46.574Z,1002.90
2019-05-19T09:16:47.038Z,1002.93
2019-05-19T09:17:47.507Z,1002.92
2019-05-19T09:18:47.977Z,1002.85
2019-05-19T09:19:48.437Z,1002.87
2019-05-19T09:20:48.917Z,1002.89
2019-05-19T09:21:49.371Z,1002.87
2019-05-19T09:22:49.835Z,1002.92
2019-05-19T09:23:50.305Z,1002.84
2019-05-19T09:24:50.765Z,1002.84
2019-05-19T09:25:51.239Z,1002.83
2019-05-19T09:26:52.538Z,1002.80
2019-05-19T09:27:52.161Z,1002.73
2019-05-19T09:28:52.634Z,1002.72
2019-05-19T09:29:53.106Z,1002.75
2019-05-19T09:30:53.594Z,1002.73
2019-05-19T09:31:54.071Z,1002.71
2019-05-19T09:32:55.160Z,1002.71
2019-05-19T09:33:55.907Z,1002.70
2019-05-19T09:34:55.443Z,1002.64
2019-05-19T09:35:56.027Z,1002.62
2019-05-19T09:36:56.378Z,1002.59
2019-05-19T09:37:56.855Z,1002.61
2019-05-19T09:38:57.326Z,1002.61
2019-05-19T09:39:57.797Z,1002.58
2019-05-19T09:40:58.266Z,1002.65
2019-05-19T09:41:58.741Z,1002.63
2019-05-19T09:42:59.247Z,1002.61
2019-05-19T09:43:59.720Z,1002.62
2019-05-19T09:45:00.158Z,1002.63
2019-05-19T09:46:00.628Z,1002.57
2019-05-19T09:47:01.099Z,1002.58
2019-05-19T09:48:01.574Z,1002.56
2019-05-19T09:49:02.045Z,1002.58
2019-05-19T09:50:02.521Z,1002.49
2019-05-19T09:51:02.989Z,1002.48
2019-05-19T09:52:03.471Z,1002.49
2019-05-19T09:53:03.980Z,1002.46
2019-05-19T09:54:04.415Z,1002.50
2019-05-19T09:55:05.120Z,1002.53
2019-05-19T09:56:05.360Z,1002.53
2019-05-19T09:57:05.874Z,1002.58
2019-05-19T09:58:06.305Z,1002.55
2019-05-19T09:59:06.775Z,1002.47
2019-05-19T10:00:07.248Z,1002.49
2019-05-19T10:01:07.720Z,1002.42
2019-05-19T10:02:08.226Z,1002.50
2019-05-19T10:03:08.666Z,1002.48
2019-05-19T10:04:09.143Z,1002.49
2019-05-19T10:05:09.611Z,1002.49
2019-05-19T10:06:10.087Z,1002.54
2019-05-19T10:07:10.605Z,1002.52
2019-05-19T10:08:11.059Z,1002.52
2019-05-19T10:09:11.507Z,1002.51
2019-05-19T10:10:11.977Z,1002.48
2019-05-19T10:11:12.450Z,1002.50
2019-05-19T10:12:12.916Z,1002.51
2019-05-19T10:13:13.403Z,1002.53
2019-05-19T10:14:13.864Z,1002.43
2019-05-19T10:15:14.331Z,1002.44
2019-05-19T10:16:14.802Z,1002.42
2019-05-19T10:17:15.306Z,1002.41
2019-05-19T10:18:15.751Z,1002.49
2019-05-19T10:19:16.212Z,1002.41
2019-05-19T10:20:16.684Z,1002.43
2019-05-19T10:21:17.161Z,1002.39
2019-05-19T10:22:17.623Z,1002.34
2019-05-19T10:23:18.095Z,1002.41
2019-05-19T10:24:18.635Z,1002.40
2019-05-19T10:25:22.305Z,1002.38
2019-05-19T10:26:19.511Z,1002.38
2019-05-19T10:27:21.746Z,1002.39
2019-05-19T10:28:20.454Z,1002.38
2019-05-19T10:29:20.930Z,1002.33
2019-05-19T10:30:21.400Z,1002.35
2019-05-19T10:31:21.872Z,1002.31
2019-05-19T10:32:22.357Z,1002.29
2019-05-19T10:33:22.827Z,1002.30
2019-05-19T10:34:23.295Z,1002.30
2019-05-19T10:35:23.770Z,1002.29
2019-05-19T10:36:24.234Z,1002.31
2019-05-19T10:37:24.723Z,1002.30
2019-05-19T10:38:25.188Z,1002.23
2019-05-19T10:39:25.668Z,1002.28
2019-05-19T10:40:26.137Z,1002.32
2019-05-19T10:41:26.613Z,1002.29
2019-05-19T10:42:27.089Z,1002.27
2019-05-19T10:43:27.560Z,1002.27
2019-05-19T10:44:28.037Z,1002.29
2019-05-19T10:45:28.507Z,1002.30
2019-05-19T10:46:28.989Z,1002.34
2019-05-19T10:47:29.456Z,1002.32
2019-05-19T10:48:29.930Z,1002.31
2019-05-19T10:49:30.396Z,1002.30
2019-05-19T10:50:30.865Z,1002.22
2019-05-19T10:51:31.351Z,1002.21
2019-05-19T10:52:31.860Z,1002.21
2019-05-19T10:53:32.310Z,1002.21
2019-05-19T10:54:32.759Z,1002.21
2019-05-19T10:55:36.379Z,1002.22
2019-05-19T10:56:33.692Z,1002.19
2019-05-19T10:57:34.176Z,1002.12
2019-05-19T10:58:34.665Z,1002.14
2019-05-19T10:59:35.155Z,1002.17
2019-05-19T11:00:35.592Z,1002.16
2019-05-19T11:01:36.114Z,1002.17
2019-05-19T11:02:36.534Z,1002.11
2019-05-19T11:03:37.037Z,1002.17
2019-05-19T11:04:37.481Z,1002.13
2019-05-19T11:05:37.943Z,1002.07
2019-05-19T11:06:38.423Z,1002.11
2019-05-19T11:07:38.885Z,1002.15
2019-05-19T11:08:39.362Z,1002.12
2019-05-19T11:09:39.823Z,1002.07
2019-05-19T11:10:40.300Z,1002.15
2019-05-19T11:11:40.774Z,1002.12
2019-05-19T11:12:41.263Z,1002.16
2019-05-19T11:13:41.707Z,1002.12
2019-05-19T11:14:42.173Z,1002.15
2019-05-19T11:15:42.654Z,1002.11
2019-05-19T11:16:43.219Z,1002.07
2019-05-19T11:17:43.615Z,1002.01
2019-05-19T11:18:44.066Z,1002.00
2019-05-19T11:19:44.536Z,1002.03
2019-05-19T11:20:45.003Z,1001.94
2019-05-19T11:21:45.475Z,1001.94
2019-05-19T11:22:45.940Z,1002.03
2019-05-19T11:23:46.408Z,1001.99
2019-05-19T11:24:46.875Z,1002.07
2019-05-19T11:25:51.454Z,1002.01
2019-05-19T11:26:47.822Z,1002.00
2019-05-19T11:27:48.327Z,1001.89
2019-05-19T11:28:48.749Z,1001.90
2019-05-19T11:29:49.252Z,1001.96
2019-05-19T11:30:49.683Z,1001.96
2019-05-19T11:31:50.144Z,1001.90
2019-05-19T11:32:50.608Z,1001.90
2019-05-19T11:33:51.076Z,1001.92
2019-05-19T11:34:51.550Z,1001.92
2019-05-19T11:35:52.011Z,1001.94
2019-05-19T11:36:52.476Z,1001.96
2019-05-19T11:37:52.928Z,1001.99
2019-05-19T11:38:53.393Z,1001.92
2019-05-19T11:39:53.855Z,1001.95
2019-05-19T11:40:54.314Z,1002.00
2019-05-19T11:41:54.769Z,1001.97
2019-05-19T11:42:55.242Z,1001.94
2019-05-19T11:43:55.694Z,1002.00
2019-05-19T11:44:56.162Z,1002.03
2019-05-19T11:45:56.601Z,1002.01
2019-05-19T11:46:57.062Z,1001.98
2019-05-19T11:47:57.514Z,1001.91
2019-05-19T11:48:57.972Z,1001.89
2019-05-19T11:49:58.425Z,1001.88
2019-05-19T11:50:58.950Z,1001.91
2019-05-19T11:51:59.333Z,1001.91
2019-05-19T11:52:59.787Z,1001.93
2019-05-19T11:54:00.242Z,1001.99
2019-05-19T11:55:00.693Z,1001.95
2019-05-19T11:56:06.609Z,1001.99
2019-05-19T11:57:01.633Z,1001.84
2019-05-19T11:58:02.097Z,1001.90
2019-05-19T11:59:02.517Z,1001.89
2019-05-19T12:00:02.957Z,1001.81
2019-05-19T12:01:03.412Z,1001.81
2019-05-19T12:02:03.858Z,1001.80
2019-05-19T12:03:04.314Z,1001.80
2019-05-19T12:04:04.784Z,1001.78
2019-05-19T12:05:05.230Z,1001.79
2019-05-19T12:06:05.686Z,1001.76
2019-05-19T12:07:06.120Z,1001.79
2019-05-19T12:08:06.576Z,1001.80
2019-05-19T12:09:07.016Z,1001.81
2019-05-19T12:10:07.467Z,1001.79
2019-05-19T12:11:07.938Z,1001.80
2019-05-19T12:12:08.369Z,1001.77
2019-05-19T12:13:08.849Z,1001.79
2019-05-19T12:14:09.271Z,1001.81
2019-05-19T12:15:09.719Z,1001.81
2019-05-19T12:16:10.165Z,1001.77
2019-05-19T12:17:10.644Z,1001.78
2019-05-19T12:18:11.070Z,1001.76
2019-05-19T12:19:11.511Z,1001.71
2019-05-19T12:20:11.969Z,1001.72
2019-05-19T12:21:12.416Z,1001.72
2019-05-19T12:22:12.859Z,1001.72
2019-05-19T12:23:13.361Z,1001.67
2019-05-19T12:24:13.762Z,1001.69
2019-05-19T12:25:14.337Z,1001.64
2019-05-19T12:26:23.318Z,1001.68
2019-05-19T12:27:15.113Z,1001.58
2019-05-19T12:28:15.559Z,1001.66
2019-05-19T12:29:16.012Z,1001.60
2019-05-19T12:30:16.454Z,1001.57
2019-05-19T12:31:16.898Z,1001.61
2019-05-19T12:32:17.354Z,1001.65
2019-05-19T12:33:17.802Z,1001.65
2019-05-19T12:34:18.244Z,1001.60
2019-05-19T12:35:18.704Z,1001.68
2019-05-19T12:36:19.150Z,1001.69
2019-05-19T12:37:19.596Z,1001.68
2019-05-19T12:38:20.038Z,1001.75
2019-05-19T12:39:20.494Z,1001.74
2019-05-19T12:40:22.715Z,1001.76
2019-05-19T12:41:21.381Z,1001.73
2019-05-19T12:42:21.840Z,1001.69
2019-05-19T12:43:22.284Z,1001.70
2019-05-19T12:44:22.723Z,1001.65
2019-05-19T12:45:23.291Z,1001.66